createdAt,value
2023-06-13T00:01:37.674Z,59.60
2023-06-13T00:04:04.948Z,59.80
2023-06-13T00:06:35.865Z,59.50
2023-06-13T00:09:03.696Z,59.60
2023-06-13T00:11:30.782Z,59.90
2023-06-13T00:13:57.850Z,60.00
2023-06-13T00:16:26.672Z,60.20
2023-06-13T00:18:55.008Z,61.00
2023-06-13T00:21:22.145Z,60.40
2023-06-13T00:23:49.390Z,60.20
2023-06-13T00:26:16.493Z,60.10
2023-06-13T00:28:48.128Z,60.20
2023-06-13T00:31:15.277Z,60.10
2023-06-13T00:33:44.909Z,60.30
2023-06-13T00:36:17.380Z,60.40
2023-06-13T00:38:44.491Z,60.50
2023-06-13T00:41:11.454Z,60.60
2023-06-13T00:43:38.420Z,60.60
2023-06-13T00:46:05.598Z,60.80
2023-06-13T00:48:33.361Z,60.90
2023-06-13T00:51:02.696Z,61.00
2023-06-13T00:53:32.383Z,61.60
2023-06-13T00:56:03.621Z,61.80
2023-06-13T00:58:30.735Z,62.00
2023-06-13T01:00:58.888Z,62.00
2023-06-13T01:03:26.025Z,62.30
2023-06-13T01:05:53.041Z,62.30
2023-06-13T01:08:26.131Z,62.20
2023-06-13T01:11:14.267Z,62.20
2023-06-13T01:13:48.339Z,62.50
2023-06-13T01:16:25.383Z,62.60
2023-06-13T01:18:53.348Z,62.60
2023-06-13T01:21:22.056Z,62.50
2023-06-13T01:23:53.678Z,62.90
2023-06-13T01:38:43.546Z,63.70
2023-06-13T01:41:13.159Z,64.50
2023-06-13T01:43:40.185Z,64.40
2023-06-13T01:46:25.940Z,64.70
2023-06-13T01:48:53.451Z,65.20
2023-06-13T01:51:20.482Z,65.30
2023-06-13T01:53:55.207Z,65.10
2023-06-13T01:56:25.097Z,65.20
2023-06-13T01:59:04.224Z,65.20
2023-06-13T02:01:36.399Z,65.20
2023-06-13T02:04:04.377Z,65.60
2023-06-13T02:06:31.876Z,65.40
2023-06-13T02:08:58.971Z,65.70
2023-06-13T02:11:27.051Z,65.70
2023-06-13T02:13:54.246Z,65.80
2023-06-13T02:16:26.699Z,65.60
2023-06-13T02:18:54.405Z,65.40
2023-06-13T02:21:22.546Z,65.70
2023-06-13T02:23:50.980Z,66.00
2023-06-13T02:26:20.856Z,65.80
2023-06-13T02:28:49.165Z,65.80
2023-06-13T02:31:17.145Z,65.80
2023-06-13T02:33:45.208Z,65.70
2023-06-13T02:36:13.031Z,66.10
2023-06-13T02:38:42.344Z,66.00
2023-06-13T02:41:09.423Z,66.00
2023-06-13T02:43:36.755Z,66.00
2023-06-13T02:46:04.700Z,66.40
2023-06-13T02:48:31.719Z,66.40
2023-06-13T02:50:58.794Z,66.30
2023-06-13T02:53:26.526Z,66.50
2023-06-13T02:55:54.179Z,66.50
2023-06-13T02:58:21.696Z,66.40
2023-06-13T03:01:07.330Z,66.40
2023-06-13T03:03:35.857Z,66.10
2023-06-13T03:06:09.933Z,66.10
2023-06-13T03:08:40.351Z,66.40
2023-06-13T03:11:10.548Z,66.30
2023-06-13T03:13:39.551Z,66.20
2023-06-13T03:16:07.846Z,66.30
2023-06-13T03:18:37.004Z,66.10
2023-06-13T03:21:05.992Z,66.00
2023-06-13T03:23:33.235Z,66.10
2023-06-13T03:26:03.078Z,66.10
2023-06-13T03:28:33.074Z,66.00
2023-06-13T03:31:01.980Z,65.80
2023-06-13T03:33:33.792Z,65.80
2023-06-13T03:36:02.026Z,65.60
2023-06-13T03:38:29.845Z,65.50
2023-06-13T03:40:57.512Z,65.50
2023-06-13T03:43:27.872Z,65.40
2023-06-13T03:45:55.313Z,65.40
2023-06-13T03:48:23.080Z,65.30
2023-06-13T03:50:50.203Z,65.40
2023-06-13T03:53:17.199Z,65.20
2023-06-13T03:55:46.424Z,65.30
2023-06-13T03:58:14.087Z,64.90
2023-06-13T04:00:41.117Z,65.20
2023-06-13T04:03:09.640Z,64.80
2023-06-13T04:05:37.139Z,64.80
2023-06-13T04:08:06.510Z,64.80
2023-06-13T04:10:33.549Z,64.90
2023-06-13T04:13:00.708Z,64.90
2023-06-13T04:15:27.904Z,64.60
2023-06-13T04:17:55.324Z,64.60
2023-06-13T04:20:25.550Z,64.60
2023-06-13T04:22:53.484Z,64.70
2023-06-13T04:25:21.118Z,64.50
2023-06-13T04:27:49.874Z,64.10
2023-06-13T04:30:17.410Z,64.30
2023-06-13T04:35:52.142Z,64.00
2023-06-13T04:38:24.316Z,64.00
2023-06-13T04:40:51.541Z,63.60
2023-06-13T04:43:18.603Z,63.60
2023-06-13T04:45:45.760Z,63.70
2023-06-13T04:48:12.847Z,63.80
2023-06-13T04:50:41.411Z,63.60
2023-06-13T04:53:08.901Z,63.50
2023-06-13T04:55:36.777Z,63.30
2023-06-13T04:58:03.749Z,63.20
2023-06-13T05:00:30.884Z,62.60
2023-06-13T05:02:58.361Z,62.30
2023-06-13T05:05:25.603Z,62.60
2023-06-13T05:07:57.169Z,61.90
2023-06-13T05:10:25.359Z,62.10
2023-06-13T05:12:52.865Z,62.00
2023-06-13T05:15:21.223Z,62.20
2023-06-13T05:17:49.624Z,62.00
2023-06-13T05:20:17.040Z,62.20
2023-06-13T05:22:44.101Z,61.70
2023-06-13T05:25:13.233Z,60.80
2023-06-13T05:27:40.543Z,60.90
2023-06-13T05:30:08.103Z,60.60
2023-06-13T05:32:35.232Z,60.60
2023-06-13T05:35:02.360Z,60.80
2023-06-13T05:37:29.898Z,61.20
2023-06-13T05:39:57.292Z,60.80
2023-06-13T05:42:24.433Z,60.80
2023-06-13T05:44:51.538Z,59.90
2023-06-13T05:47:18.513Z,59.70
2023-06-13T05:49:46.170Z,59.70
2023-06-13T05:52:13.178Z,59.80
2023-06-13T05:54:40.205Z,59.50
2023-06-13T05:57:07.366Z,59.20
2023-06-13T05:59:34.365Z,59.20
2023-06-13T06:02:02.232Z,58.70
2023-06-13T06:04:29.356Z,58.20
2023-06-13T06:06:56.446Z,58.40
2023-06-13T06:09:24.917Z,58.00
2023-06-13T06:11:52.832Z,57.40
2023-06-13T06:14:19.818Z,56.70
2023-06-13T06:16:46.938Z,56.20
2023-06-13T06:19:13.966Z,56.20
2023-06-13T06:21:41.171Z,56.10
2023-06-13T06:24:08.428Z,56.40
2023-06-13T06:26:35.710Z,56.40
2023-06-13T06:29:02.686Z,56.30
2023-06-13T06:31:29.755Z,56.40
2023-06-13T06:33:56.874Z,56.10
2023-06-13T06:36:24.468Z,55.90
2023-06-13T06:38:54.768Z,56.10
2023-06-13T06:41:21.966Z,55.40
2023-06-13T06:43:49.073Z,54.20
2023-06-13T06:46:16.451Z,53.20
2023-06-13T06:48:43.604Z,53.00
2023-06-13T06:51:10.779Z,52.60
2023-06-13T06:53:40.905Z,52.40
2023-06-13T06:56:08.038Z,51.20
2023-06-13T06:58:35.260Z,50.80
2023-06-13T07:01:02.440Z,51.30
2023-06-13T07:03:29.560Z,51.10
2023-06-13T07:05:56.745Z,50.90
2023-06-13T07:08:23.870Z,49.60
2023-06-13T07:10:52.707Z,48.80
2023-06-13T07:23:13.437Z,43.70
2023-06-13T07:25:43.354Z,42.50
2023-06-13T07:45:27.876Z,38.70
2023-06-13T07:47:55.258Z,39.00
2023-06-13T07:50:23.332Z,37.70
2023-06-13T07:52:50.409Z,37.20
2023-06-13T07:55:17.623Z,36.70
2023-06-13T07:57:59.013Z,37.80
2023-06-13T08:00:26.680Z,38.60
2023-06-13T08:02:53.852Z,39.30
2023-06-13T08:05:21.510Z,39.00
2023-06-13T08:07:48.876Z,39.00
2023-06-13T08:10:16.042Z,38.70
2023-06-13T08:12:43.581Z,39.70
2023-06-13T08:15:11.620Z,40.20
2023-06-13T08:17:39.130Z,40.10
2023-06-13T08:20:07.183Z,40.40
2023-06-13T08:22:34.302Z,40.30
2023-06-13T08:25:01.561Z,40.50
2023-06-13T08:27:28.700Z,40.90
2023-06-13T08:29:57.758Z,40.70
2023-06-13T08:32:25.994Z,40.60
2023-06-13T08:34:53.253Z,40.10
2023-06-13T08:37:20.274Z,40.50
2023-06-13T08:39:47.277Z,40.80
2023-06-13T08:42:14.497Z,40.40
2023-06-13T08:44:42.171Z,40.60
2023-06-13T08:47:31.582Z,39.80
2023-06-13T08:50:01.768Z,40.40
2023-06-13T08:52:37.856Z,40.50
2023-06-13T08:55:14.564Z,39.90
2023-06-13T08:57:55.645Z,39.90
2023-06-13T09:00:25.771Z,39.50
2023-06-13T09:02:53.769Z,39.00
2023-06-13T09:05:21.028Z,38.80
2023-06-13T09:07:48.422Z,39.00
2023-06-13T09:10:16.469Z,38.30
2023-06-13T09:12:44.770Z,38.70
2023-06-13T09:15:12.444Z,38.10
2023-06-13T09:17:40.161Z,36.70
2023-06-13T09:20:08.906Z,36.60
2023-06-13T09:22:36.576Z,36.10
2023-06-13T09:25:05.898Z,35.10
2023-06-13T09:27:33.010Z,33.70
2023-06-13T09:30:03.327Z,33.20
2023-06-13T09:32:30.443Z,33.40
2023-06-13T09:34:58.410Z,32.90
2023-06-13T09:37:26.967Z,33.20
2023-06-13T09:40:09.810Z,34.00
2023-06-13T09:42:42.740Z,35.70
2023-06-13T09:45:10.903Z,35.60
2023-06-13T09:50:05.895Z,31.20
2023-06-13T09:52:32.926Z,31.60
2023-06-13T09:55:00.004Z,32.30
2023-06-13T09:57:41.459Z,32.00
2023-06-13T10:00:15.305Z,31.40
2023-06-13T10:02:44.324Z,31.80
2023-06-13T10:05:13.244Z,31.40
2023-06-13T10:07:40.943Z,31.70
2023-06-13T10:10:09.155Z,32.00
2023-06-13T10:12:39.590Z,31.30
2023-06-13T10:15:07.416Z,31.10
2023-06-13T10:17:36.603Z,31.50
2023-06-13T10:20:08.441Z,31.10
2023-06-13T10:22:36.508Z,30.50
2023-06-13T10:25:04.447Z,30.80
2023-06-13T10:27:31.734Z,31.40
2023-06-13T10:30:12.831Z,30.70
2023-06-13T10:32:48.098Z,30.80
2023-06-13T10:35:18.083Z,31.20
2023-06-13T10:37:54.946Z,31.20
2023-06-13T10:40:40.927Z,31.30
2023-06-13T10:43:11.147Z,32.70
2023-06-13T10:45:38.369Z,31.60
2023-06-13T10:48:06.039Z,31.50
2023-06-13T10:50:45.375Z,32.00
2023-06-13T10:53:44.864Z,33.50
2023-06-13T10:56:12.234Z,33.40
2023-06-13T10:58:39.317Z,33.30
2023-06-13T11:01:25.207Z,32.70
2023-06-13T11:03:52.425Z,32.90
2023-06-13T11:06:19.378Z,32.40
2023-06-13T11:08:46.348Z,32.00
2023-06-13T11:11:13.304Z,32.00
2023-06-13T11:13:40.995Z,31.90
2023-06-13T11:16:21.578Z,32.10
2023-06-13T11:18:49.257Z,32.50
2023-06-13T11:21:16.385Z,32.60
2023-06-13T11:23:56.136Z,32.70
2023-06-13T11:26:23.333Z,32.70
2023-06-13T11:28:51.625Z,33.00
2023-06-13T11:31:21.034Z,33.40
2023-06-13T11:33:49.242Z,33.40
2023-06-13T11:36:18.338Z,33.30
2023-06-13T11:39:05.467Z,32.90
2023-06-13T11:41:33.010Z,33.60
2023-06-13T11:44:00.045Z,33.50
2023-06-13T11:46:27.096Z,33.60
2023-06-13T11:48:55.556Z,33.70
2023-06-13T11:51:23.013Z,33.10
2023-06-13T11:53:53.973Z,32.70
2023-06-13T11:56:27.001Z,33.20
2023-06-13T11:58:54.949Z,33.50
2023-06-13T12:01:26.143Z,33.90
2023-06-13T12:03:57.314Z,33.70
2023-06-13T12:06:26.152Z,33.50
2023-06-13T12:08:53.233Z,34.20
2023-06-13T12:11:26.353Z,34.40
2023-06-13T12:13:58.345Z,34.40
2023-06-13T12:16:27.001Z,34.10
2023-06-13T12:18:55.122Z,34.80
2023-06-13T12:21:30.375Z,34.70
2023-06-13T12:31:31.481Z,37.40
2023-06-13T12:34:08.460Z,38.80
2023-06-13T12:36:45.831Z,38.80
2023-06-13T12:39:15.615Z,39.10
2023-06-13T12:41:47.516Z,39.30
2023-06-13T12:44:15.029Z,39.80
2023-06-13T12:46:42.153Z,40.20
2023-06-13T12:49:12.992Z,41.00
2023-06-13T12:51:45.887Z,41.20
2023-06-13T12:54:17.209Z,41.10
2023-06-13T12:59:11.919Z,40.60
2023-06-13T13:01:39.013Z,41.40
2023-06-13T13:04:06.178Z,42.10
2023-06-13T13:06:33.376Z,41.80
2023-06-13T13:09:00.333Z,42.10
2023-06-13T13:11:27.462Z,42.10
2023-06-13T13:13:54.667Z,42.20
2023-06-13T13:16:22.979Z,42.40
2023-06-13T13:18:49.992Z,42.50
2023-06-13T13:21:17.071Z,42.70
2023-06-13T13:23:44.045Z,42.60
2023-06-13T13:26:12.324Z,43.00
2023-06-13T13:28:39.396Z,43.00
2023-06-13T13:31:06.374Z,43.00
2023-06-13T13:33:33.768Z,43.50
2023-06-13T13:36:00.923Z,43.10
2023-06-13T13:38:27.928Z,43.40
2023-06-13T13:40:55.309Z,43.00
2023-06-13T13:43:22.364Z,43.40
2023-06-13T13:45:52.211Z,43.20
2023-06-13T13:48:19.479Z,43.50
2023-06-13T13:50:47.822Z,44.10
2023-06-13T13:53:16.128Z,44.50
2023-06-13T13:55:43.192Z,44.60
2023-06-13T13:58:10.633Z,44.50
2023-06-13T14:00:37.981Z,44.40
2023-06-13T14:03:05.659Z,44.50
2023-06-13T14:05:32.705Z,45.20
2023-06-13T14:08:00.314Z,45.40
2023-06-13T14:10:27.250Z,45.00
2023-06-13T14:12:54.272Z,45.40
2023-06-13T14:15:21.574Z,45.50
2023-06-13T14:17:48.625Z,45.50
2023-06-13T14:20:17.645Z,45.30
2023-06-13T14:37:39.752Z,45.40
2023-06-13T14:40:07.248Z,46.10
2023-06-13T14:42:34.188Z,46.60
2023-06-13T14:45:01.256Z,46.60
2023-06-13T14:47:28.651Z,46.30
2023-06-13T14:49:55.683Z,46.60
2023-06-13T14:52:22.891Z,46.90
2023-06-13T14:54:49.950Z,46.80
2023-06-13T14:57:16.875Z,46.90
2023-06-13T14:59:44.443Z,47.20
2023-06-13T15:02:11.538Z,47.50
2023-06-13T15:04:38.560Z,47.40
2023-06-13T15:07:05.638Z,47.40
2023-06-13T15:09:33.516Z,47.20
2023-06-13T15:12:00.703Z,47.30
2023-06-13T15:14:27.840Z,47.50
2023-06-13T15:16:54.841Z,46.60
2023-06-13T15:19:22.146Z,47.10
2023-06-13T15:21:49.095Z,47.10
2023-06-13T15:24:16.209Z,47.20
2023-06-13T15:26:43.405Z,46.90
2023-06-13T15:29:10.630Z,47.00
2023-06-13T15:31:37.752Z,46.70
2023-06-13T15:34:05.003Z,46.90
2023-06-13T15:36:32.191Z,47.10
2023-06-13T15:38:59.387Z,47.40
2023-06-13T15:41:26.493Z,47.20
2023-06-13T15:43:53.863Z,47.10
2023-06-13T15:46:22.826Z,47.20
2023-06-13T15:48:49.876Z,47.40
2023-06-13T15:51:16.912Z,47.70
2023-06-13T15:53:43.952Z,47.90
2023-06-13T15:56:11.736Z,48.10
2023-06-13T15:58:38.933Z,48.40
2023-06-13T16:01:07.415Z,48.50
2023-06-13T16:03:34.700Z,48.80
2023-06-13T16:06:03.963Z,49.10
2023-06-13T16:08:31.496Z,49.10
2023-06-13T16:10:58.621Z,49.00
2023-06-13T16:13:27.392Z,48.80
2023-06-13T16:15:54.356Z,48.80
2023-06-13T16:18:21.943Z,48.90
2023-06-13T16:20:49.330Z,49.10
2023-06-13T16:23:18.386Z,49.10
2023-06-13T16:25:46.420Z,48.90
2023-06-13T16:28:14.041Z,49.10
2023-06-13T16:30:41.515Z,49.20
2023-06-13T16:33:08.720Z,49.30
2023-06-13T16:35:37.496Z,49.50
2023-06-13T16:38:04.505Z,49.80
2023-06-13T16:40:31.675Z,49.60
2023-06-13T16:42:58.745Z,49.90
2023-06-13T16:45:26.287Z,50.20
2023-06-13T16:47:53.643Z,50.20
2023-06-13T16:50:20.773Z,50.40
2023-06-13T16:52:50.522Z,50.70
2023-06-13T16:55:17.910Z,50.80
2023-06-13T16:57:45.123Z,50.90
2023-06-13T17:00:12.550Z,50.90
2023-06-13T17:02:39.651Z,50.70
2023-06-13T17:05:06.820Z,51.20
2023-06-13T17:07:34.017Z,51.10
2023-06-13T17:10:01.555Z,51.30
2023-06-13T17:14:55.961Z,51.00
2023-06-13T17:17:23.129Z,51.80
2023-06-13T17:19:52.703Z,52.00
2023-06-13T17:22:19.819Z,52.20
2023-06-13T17:24:46.747Z,52.50
2023-06-13T17:27:13.712Z,52.80
2023-06-13T17:29:40.846Z,53.10
2023-06-13T17:32:08.134Z,53.60
2023-06-13T17:34:37.060Z,53.70
2023-06-13T17:37:04.223Z,54.20
2023-06-13T17:39:31.181Z,54.60
2023-06-13T17:42:03.318Z,55.80
2023-06-13T17:44:30.566Z,56.90
2023-06-13T17:46:57.631Z,57.30
2023-06-13T17:49:24.732Z,56.80
2023-06-13T17:51:52.162Z,56.70
2023-06-13T17:54:20.821Z,56.90
2023-06-13T17:56:48.295Z,57.40
2023-06-13T17:59:15.498Z,57.70
2023-06-13T18:01:42.602Z,57.90
2023-06-13T18:04:09.893Z,57.60
2023-06-13T18:06:38.024Z,57.40
2023-06-13T18:09:05.671Z,57.50
2023-06-13T18:11:33.343Z,57.60
2023-06-13T18:14:01.795Z,57.70
2023-06-13T18:16:29.026Z,57.60
2023-06-13T18:18:56.339Z,57.90
2023-06-13T18:21:23.429Z,58.00
2023-06-13T18:23:50.449Z,58.20
2023-06-13T18:26:17.661Z,58.40
2023-06-13T18:28:44.632Z,58.50
2023-06-13T18:31:11.680Z,58.40
2023-06-13T18:33:38.742Z,58.70
2023-06-13T18:36:05.763Z,58.60
2023-06-13T18:38:34.530Z,59.00
2023-06-13T18:41:02.106Z,59.00
2023-06-13T18:43:29.567Z,58.90
2023-06-13T18:45:56.813Z,58.90
2023-06-13T18:48:24.030Z,58.70
2023-06-13T18:50:52.566Z,58.70
2023-06-13T18:53:19.602Z,58.80
2023-06-13T18:55:47.069Z,59.00
2023-06-13T18:58:16.052Z,59.30
2023-06-13T19:00:46.371Z,59.40
2023-06-13T19:03:13.799Z,59.50
2023-06-13T19:05:40.935Z,59.80
2023-06-13T19:08:08.727Z,60.00
2023-06-13T19:10:36.733Z,60.40
2023-06-13T19:13:03.900Z,60.60
2023-06-13T19:15:30.964Z,60.80
2023-06-13T19:17:58.005Z,61.30
2023-06-13T19:20:25.273Z,61.80
2023-06-13T19:22:52.526Z,62.40
2023-06-13T19:25:19.941Z,62.70
2023-06-13T19:27:47.050Z,63.10
2023-06-13T19:30:15.557Z,63.60
2023-06-13T19:32:42.939Z,64.10
2023-06-13T19:35:10.220Z,64.70
2023-06-13T19:37:37.492Z,65.10
2023-06-13T19:40:11.320Z,65.40
2023-06-13T19:42:39.865Z,65.70
2023-06-13T19:45:07.247Z,66.10
2023-06-13T19:47:34.363Z,66.30
2023-06-13T19:50:01.371Z,66.70
2023-06-13T19:52:29.198Z,67.10
2023-06-13T19:54:59.658Z,67.20
2023-06-13T19:57:28.475Z,67.30
2023-06-13T19:59:55.558Z,67.60
2023-06-13T20:02:22.794Z,68.10
2023-06-13T20:04:50.455Z,68.30
2023-06-13T20:07:17.665Z,68.60
2023-06-13T20:09:44.625Z,68.90
2023-06-13T20:12:11.860Z,69.10
2023-06-13T20:14:39.040Z,69.20
2023-06-13T20:17:07.284Z,69.50
2023-06-13T20:19:40.395Z,69.70
2023-06-13T20:22:07.698Z,69.90
2023-06-13T20:24:34.704Z,69.90
2023-06-13T20:27:02.192Z,70.00
2023-06-13T20:29:29.324Z,70.00
2023-06-13T20:31:56.298Z,70.40
2023-06-13T20:34:23.376Z,70.50
2023-06-13T20:36:50.384Z,70.60
2023-06-13T20:39:17.782Z,70.60
2023-06-13T20:41:44.921Z,70.60
2023-06-13T20:44:11.907Z,70.70
2023-06-13T20:46:41.112Z,70.90
2023-06-13T20:49:08.840Z,70.90
2023-06-13T20:51:38.256Z,71.00
2023-06-13T20:54:05.958Z,71.30
2023-06-13T20:56:32.972Z,71.50
2023-06-13T20:58:59.922Z,71.60
2023-06-13T21:01:29.689Z,71.90
2023-06-13T21:03:57.055Z,72.10
2023-06-13T21:06:25.821Z,72.30
2023-06-13T21:08:53.336Z,72.60
2023-06-13T21:11:20.318Z,72.60
2023-06-13T21:13:47.574Z,72.70
2023-06-13T21:16:17.695Z,72.70
2023-06-13T21:18:44.728Z,72.70
2023-06-13T21:21:12.081Z,72.70
2023-06-13T21:23:39.114Z,72.90
2023-06-13T21:26:06.216Z,73.00
2023-06-13T21:28:33.177Z,73.10
2023-06-13T21:31:00.281Z,73.50
2023-06-13T21:33:29.468Z,73.70
2023-06-13T21:35:59.526Z,74.00
2023-06-13T21:38:29.709Z,74.10
2023-06-13T21:40:56.811Z,74.20
2023-06-13T21:43:24.328Z,74.30
2023-06-13T21:46:00.769Z,74.50
2023-06-13T21:48:30.833Z,74.60
2023-06-13T21:50:58.289Z,74.70
2023-06-13T21:53:25.389Z,74.70
2023-06-13T21:55:52.806Z,74.90
2023-06-13T21:58:20.040Z,75.10
2023-06-13T22:00:49.924Z,75.30
2023-06-13T22:03:20.042Z,75.40
2023-06-13T22:05:49.254Z,75.70
2023-06-13T22:08:16.276Z,76.30
2023-06-13T22:10:44.623Z,76.60
2023-06-13T22:13:12.114Z,77.10
2023-06-13T22:15:39.156Z,77.20
2023-06-13T22:18:06.208Z,77.50
2023-06-13T22:20:34.685Z,77.70
2023-06-13T22:23:01.754Z,77.70
2023-06-13T22:25:30.231Z,77.50
2023-06-13T22:27:59.040Z,77.40
2023-06-13T22:30:26.231Z,77.80
2023-06-13T22:32:54.442Z,77.60
2023-06-13T22:35:22.072Z,77.60
2023-06-13T22:37:49.315Z,77.50
2023-06-13T22:40:16.758Z,77.20
2023-06-13T22:42:44.078Z,77.10
2023-06-13T22:45:11.137Z,76.00
2023-06-13T22:47:38.329Z,75.70
2023-06-13T22:50:06.079Z,76.00
2023-06-13T22:52:33.290Z,77.00
2023-06-13T22:55:00.492Z,75.80
2023-06-13T22:57:30.346Z,75.50
2023-06-13T22:59:57.722Z,75.40
2023-06-13T23:02:24.869Z,75.30
2023-06-13T23:04:53.892Z,75.20
2023-06-13T23:07:21.167Z,75.10
2023-06-13T23:09:48.166Z,75.00
2023-06-13T23:12:15.155Z,75.00
2023-06-13T23:14:42.373Z,74.70
2023-06-13T23:17:09.396Z,74.50
2023-06-13T23:19:36.465Z,74.20
2023-06-13T23:22:03.482Z,74.30
2023-06-13T23:24:31.013Z,74.20
2023-06-13T23:26:59.113Z,74.40
2023-06-13T23:29:26.220Z,74.40
2023-06-13T23:31:53.975Z,74.40
2023-06-13T23:34:21.656Z,74.20
2023-06-13T23:36:48.695Z,74.20
2023-06-13T23:39:37.077Z,74.20
2023-06-13T23:42:05.278Z,73.90
2023-06-13T23:44:32.227Z,74.00
2023-06-13T23:46:59.247Z,74.00
2023-06-13T23:49:26.499Z,74.20
2023-06-13T23:51:53.599Z,74.30
2023-06-13T23:56:48.342Z,73.70
2023-06-13T23:59:15.522Z,74.30
